createdAt,value
2018-08-23T00:00:17.526Z,62.60
2018-08-23T00:00:51.332Z,62.60
2018-08-23T00:01:24.374Z,62.60
2018-08-23T00:01:57.400Z,62.50
2018-08-23T00:02:30.919Z,62.80
2018-08-23T00:03:03.983Z,62.80
2018-08-23T00:03:37.078Z,62.90
2018-08-23T00:04:10.792Z,62.80
2018-08-23T00:04:44.587Z,62.90
2018-08-23T00:05:17.626Z,62.90
2018-08-23T00:05:50.657Z,63.30
2018-08-23T00:06:23.688Z,63.10
2018-08-23T00:06:56.721Z,63.00
2018-08-23T00:07:29.748Z,62.90
2018-08-23T00:08:03.666Z,63.10
2018-08-23T00:08:36.712Z,63.10
2018-08-23T00:09:09.731Z,63.00
2018-08-23T00:09:42.769Z,63.10
2018-08-23T00:10:16.568Z,63.00
2018-08-23T00:10:50.410Z,63.30
2018-08-23T00:11:24.167Z,63.00
2018-08-23T00:11:57.201Z,63.10
2018-08-23T00:12:30.841Z,63.00
2018-08-23T00:13:03.869Z,63.30
2018-08-23T00:13:36.907Z,64.00
2018-08-23T00:14:09.935Z,63.10
2018-08-23T00:14:42.957Z,63.00
2018-08-23T00:15:15.992Z,63.00
2018-08-23T00:15:49.814Z,63.60
2018-08-23T00:16:22.842Z,63.00
2018-08-23T00:16:55.874Z,63.20
2018-08-23T00:17:28.897Z,63.30
2018-08-23T00:18:02.690Z,63.40
2018-08-23T00:18:36.501Z,63.00
2018-08-23T00:19:09.532Z,63.80
2018-08-23T00:19:42.582Z,63.10
2018-08-23T00:20:15.613Z,63.20
2018-08-23T00:20:49.408Z,63.20
2018-08-23T00:21:22.469Z,63.20
2018-08-23T00:21:55.507Z,63.10
2018-08-23T00:22:28.520Z,63.20
2018-08-23T00:23:02.313Z,63.30
2018-08-23T00:23:36.103Z,63.40
2018-08-23T00:24:09.920Z,63.80
2018-08-23T00:24:42.940Z,63.80
2018-08-23T00:25:15.975Z,63.60
2018-08-23T00:25:49.065Z,63.60
2018-08-23T00:26:22.100Z,63.70
2018-08-23T00:26:55.907Z,63.60
2018-08-23T00:27:28.931Z,63.60
2018-08-23T00:28:01.967Z,63.30
2018-08-23T00:28:35.128Z,63.40
2018-08-23T00:29:08.142Z,63.80
2018-08-23T00:29:41.170Z,63.60
2018-08-23T00:30:14.199Z,63.40
2018-08-23T00:30:47.228Z,63.40
2018-08-23T00:31:21.035Z,63.40
2018-08-23T00:31:54.075Z,63.40
2018-08-23T00:32:27.121Z,63.30
2018-08-23T00:33:00.138Z,63.20
2018-08-23T00:33:33.936Z,63.30
2018-08-23T00:34:06.963Z,63.40
2018-08-23T00:34:39.987Z,63.40
2018-08-23T00:35:13.032Z,63.50
2018-08-23T00:35:46.059Z,63.30
2018-08-23T00:36:19.100Z,63.50
2018-08-23T00:36:52.133Z,63.40
2018-08-23T00:37:25.156Z,63.50
2018-08-23T00:37:58.185Z,63.80
2018-08-23T00:38:31.213Z,63.80
2018-08-23T00:39:04.258Z,63.90
2018-08-23T00:39:37.284Z,64.00
2018-08-23T00:40:10.469Z,64.20
2018-08-23T00:40:43.474Z,64.10
2018-08-23T00:41:16.527Z,64.20
2018-08-23T00:41:50.332Z,64.20
2018-08-23T00:42:23.361Z,64.30
2018-08-23T00:42:56.400Z,64.60
2018-08-23T00:43:29.526Z,64.40
2018-08-23T00:44:02.551Z,64.20
2018-08-23T00:44:35.587Z,64.50
2018-08-23T00:45:08.628Z,64.40
2018-08-23T00:45:41.841Z,64.70
2018-08-23T00:46:14.884Z,64.60
2018-08-23T00:46:47.920Z,64.60
2018-08-23T00:47:20.944Z,64.50
2018-08-23T00:47:53.964Z,64.80
2018-08-23T00:48:26.991Z,64.70
2018-08-23T00:49:00.037Z,64.80
2018-08-23T00:49:33.837Z,64.80
2018-08-23T00:50:07.620Z,64.90
2018-08-23T00:50:41.444Z,65.00
2018-08-23T00:51:14.680Z,65.00
2018-08-23T00:51:47.737Z,64.80
2018-08-23T00:52:20.771Z,64.90
2018-08-23T00:52:53.804Z,65.10
2018-08-23T00:53:26.848Z,65.00
2018-08-23T00:53:59.873Z,65.10
2018-08-23T00:54:33.692Z,65.40
2018-08-23T00:55:11.804Z,65.40
2018-08-23T00:55:44.836Z,65.40
2018-08-23T00:56:17.876Z,65.40
2018-08-23T00:56:50.911Z,65.50
2018-08-23T00:57:23.953Z,65.60
2018-08-23T00:57:57.012Z,65.60
2018-08-23T00:58:30.052Z,65.60
2018-08-23T00:59:03.099Z,65.60
2018-08-23T00:59:36.123Z,65.70
2018-08-23T01:00:09.167Z,65.40
2018-08-23T01:00:42.200Z,65.90
2018-08-23T01:01:15.245Z,65.90
2018-08-23T01:01:48.303Z,66.00
2018-08-23T01:02:21.342Z,66.00
2018-08-23T01:02:54.376Z,66.00
2018-08-23T01:03:27.404Z,66.10
2018-08-23T01:04:00.440Z,66.20
2018-08-23T01:04:34.244Z,66.10
2018-08-23T01:05:07.345Z,66.00
2018-08-23T01:05:40.529Z,66.00
2018-08-23T01:06:13.579Z,66.20
2018-08-23T01:06:46.619Z,66.20
2018-08-23T01:07:19.644Z,66.30
2018-08-23T01:07:52.686Z,66.30
2018-08-23T01:08:25.715Z,66.40
2018-08-23T01:08:58.748Z,66.20
2018-08-23T01:09:32.558Z,66.40
2018-08-23T01:10:05.600Z,66.20
2018-08-23T01:10:38.631Z,66.30
2018-08-23T01:11:11.656Z,66.20
2018-08-23T01:11:45.476Z,66.40
2018-08-23T01:12:18.686Z,66.40
2018-08-23T01:12:51.724Z,66.40
2018-08-23T01:13:24.769Z,66.40
2018-08-23T01:13:57.784Z,66.50
2018-08-23T01:14:30.963Z,66.70
2018-08-23T01:15:04.002Z,66.60
2018-08-23T01:15:37.021Z,66.60
2018-08-23T01:16:10.063Z,66.70
2018-08-23T01:16:43.880Z,66.60
2018-08-23T01:17:16.907Z,66.50
2018-08-23T01:17:49.937Z,66.60
2018-08-23T01:18:22.960Z,66.70
2018-08-23T01:18:56.748Z,67.00
2018-08-23T01:19:29.780Z,66.80
2018-08-23T01:20:02.803Z,66.70
2018-08-23T01:20:36.600Z,66.90
2018-08-23T01:21:09.635Z,66.90
2018-08-23T01:21:42.691Z,66.80
2018-08-23T01:22:15.713Z,66.80
2018-08-23T01:22:48.752Z,67.00
2018-08-23T01:23:21.788Z,66.90
2018-08-23T01:23:54.828Z,67.00
2018-08-23T01:24:27.855Z,67.10
2018-08-23T01:25:00.945Z,67.20
2018-08-23T01:25:33.973Z,67.30
2018-08-23T01:26:07.086Z,67.30
2018-08-23T01:26:40.124Z,67.40
2018-08-23T01:27:13.164Z,67.40
2018-08-23T01:27:46.207Z,67.40
2018-08-23T01:28:19.247Z,67.30
2018-08-23T01:28:53.044Z,67.60
2018-08-23T01:29:26.076Z,67.60
2018-08-23T01:29:59.133Z,67.60
2018-08-23T01:30:32.169Z,67.60
2018-08-23T01:31:05.282Z,67.70
2018-08-23T01:31:38.304Z,67.60
2018-08-23T01:32:11.437Z,67.60
2018-08-23T01:32:44.470Z,67.60
2018-08-23T01:33:17.575Z,67.60
2018-08-23T01:33:50.604Z,67.60
2018-08-23T01:34:23.648Z,67.70
2018-08-23T01:34:56.667Z,67.90
2018-08-23T01:35:30.458Z,67.80
2018-08-23T01:36:04.255Z,67.80
2018-08-23T01:36:38.076Z,67.90
2018-08-23T01:37:11.265Z,67.90
2018-08-23T01:37:44.308Z,67.90
2018-08-23T01:38:18.099Z,67.90
2018-08-23T01:38:51.127Z,67.90
2018-08-23T01:39:24.929Z,68.10
2018-08-23T01:39:57.953Z,68.10
2018-08-23T01:40:30.984Z,68.10
2018-08-23T01:41:04.009Z,68.30
2018-08-23T01:41:37.098Z,68.20
2018-08-23T01:42:10.137Z,68.40
2018-08-23T01:42:43.188Z,68.30
2018-08-23T01:43:16.217Z,68.30
2018-08-23T01:43:49.248Z,68.30
2018-08-23T01:44:22.271Z,68.30
2018-08-23T01:44:55.304Z,69.20
2018-08-23T01:45:29.104Z,68.40
2018-08-23T01:46:02.128Z,69.20
2018-08-23T01:46:35.151Z,68.20
2018-08-23T01:47:08.205Z,68.50
2018-08-23T01:47:41.236Z,68.50
2018-08-23T01:48:14.408Z,68.60
2018-08-23T01:48:48.500Z,68.50
2018-08-23T01:49:21.529Z,68.50
2018-08-23T01:49:54.566Z,67.90
2018-08-23T01:50:27.589Z,68.60
2018-08-23T01:51:00.623Z,68.60
2018-08-23T01:51:33.662Z,68.60
2018-08-23T01:52:06.706Z,68.70
2018-08-23T01:52:39.744Z,68.60
2018-08-23T01:53:13.552Z,68.70
2018-08-23T01:53:46.584Z,68.70
2018-08-23T01:54:19.624Z,68.60
2018-08-23T01:54:52.679Z,68.70
2018-08-23T01:55:25.704Z,68.80
2018-08-23T01:55:58.738Z,69.00
2018-08-23T01:56:31.776Z,68.90
2018-08-23T01:57:04.821Z,69.00
2018-08-23T01:57:37.851Z,68.80
2018-08-23T01:58:11.004Z,68.90
2018-08-23T01:58:44.048Z,69.00
2018-08-23T01:59:17.837Z,69.00
2018-08-23T01:59:50.872Z,69.00
2018-08-23T02:00:23.916Z,68.80
2018-08-23T02:00:56.643Z,68.90
2018-08-23T02:01:29.146Z,68.90
2018-08-23T02:02:01.651Z,68.90
2018-08-23T02:02:34.931Z,69.00
2018-08-23T02:03:07.427Z,69.00
2018-08-23T02:03:40.077Z,69.10
2018-08-23T02:04:12.596Z,69.10
2018-08-23T02:04:45.553Z,69.80
2018-08-23T02:05:18.603Z,69.20
2018-08-23T02:05:51.193Z,69.10
2018-08-23T02:06:24.139Z,69.10
2018-08-23T02:06:57.179Z,69.20
2018-08-23T02:07:30.229Z,69.10
2018-08-23T02:08:03.596Z,69.40
2018-08-23T02:08:36.607Z,69.30
2018-08-23T02:09:09.642Z,69.30
2018-08-23T02:09:42.672Z,69.40
2018-08-23T02:10:15.768Z,69.40
2018-08-23T02:10:48.796Z,69.40
2018-08-23T02:11:21.821Z,69.40
2018-08-23T02:11:54.874Z,69.40
2018-08-23T02:12:28.932Z,69.40
2018-08-23T02:13:01.974Z,69.40
2018-08-23T02:13:35.030Z,69.60
2018-08-23T02:14:08.838Z,69.50
2018-08-23T02:14:42.139Z,69.50
2018-08-23T02:15:15.183Z,69.50
2018-08-23T02:15:48.239Z,69.50
2018-08-23T02:16:21.291Z,69.50
2018-08-23T02:16:54.332Z,69.70
2018-08-23T02:17:27.371Z,69.60
2018-08-23T02:18:00.399Z,69.60
2018-08-23T02:18:33.434Z,69.60
2018-08-23T02:19:07.251Z,69.80
2018-08-23T02:19:40.276Z,69.80
2018-08-23T02:20:13.600Z,69.90
2018-08-23T02:20:46.787Z,69.90
2018-08-23T02:21:19.817Z,69.80
2018-08-23T02:21:52.939Z,69.70
2018-08-23T02:22:25.546Z,70.00
2018-08-23T02:22:59.260Z,70.00
2018-08-23T02:23:32.628Z,70.00
2018-08-23T02:24:05.126Z,70.00
2018-08-23T02:24:37.639Z,70.10
2018-08-23T02:25:10.912Z,70.50
2018-08-23T02:25:43.863Z,70.40
2018-08-23T02:26:16.469Z,70.30
2018-08-23T02:26:49.951Z,70.50
2018-08-23T02:27:22.489Z,70.40
2018-08-23T02:27:54.987Z,70.20
2018-08-23T02:28:27.496Z,70.30
2018-08-23T02:29:00.000Z,70.30
2018-08-23T02:29:33.724Z,70.50
2018-08-23T02:30:06.332Z,70.50
2018-08-23T02:30:39.309Z,70.40
2018-08-23T02:31:11.904Z,70.40
2018-08-23T02:31:45.598Z,70.50
2018-08-23T02:32:18.963Z,70.50
2018-08-23T02:32:51.908Z,70.50
2018-08-23T02:33:24.967Z,70.50
2018-08-23T02:33:58.012Z,70.50
2018-08-23T02:34:31.044Z,70.70
2018-08-23T02:35:04.085Z,70.70
2018-08-23T02:35:37.121Z,70.80
2018-08-23T02:36:10.934Z,70.70
2018-08-23T02:36:44.032Z,70.70
2018-08-23T02:37:17.216Z,70.70
2018-08-23T02:37:50.256Z,70.80
2018-08-23T02:38:23.288Z,71.10
2018-08-23T02:38:56.327Z,70.90
2018-08-23T02:39:29.055Z,70.90
2018-08-23T02:40:01.575Z,70.90
2018-08-23T02:40:34.188Z,71.20
2018-08-23T02:41:06.707Z,71.00
2018-08-23T02:41:39.219Z,71.10
2018-08-23T02:42:11.720Z,71.10
2018-08-23T02:42:44.239Z,70.90
2018-08-23T02:43:17.251Z,71.00
2018-08-23T02:43:50.290Z,71.00
2018-08-23T02:44:23.316Z,71.00
2018-08-23T02:44:55.907Z,71.00
2018-08-23T02:45:28.406Z,71.10
2018-08-23T02:46:01.036Z,71.10
2018-08-23T02:46:33.995Z,71.10
2018-08-23T02:47:06.588Z,71.20
2018-08-23T02:47:39.106Z,71.30
2018-08-23T02:48:11.607Z,71.40
2018-08-23T02:48:44.123Z,71.50
2018-08-23T02:49:17.063Z,71.50
2018-08-23T02:49:50.098Z,71.40
2018-08-23T02:50:23.127Z,71.40
2018-08-23T02:50:56.169Z,71.40
2018-08-23T02:51:29.535Z,71.70
2018-08-23T02:52:02.804Z,71.50
2018-08-23T02:52:36.086Z,72.40
2018-08-23T02:53:08.590Z,71.60
2018-08-23T02:53:41.099Z,71.50
2018-08-23T02:54:13.588Z,71.50
2018-08-23T02:54:46.168Z,71.60
2018-08-23T02:55:18.675Z,71.50
2018-08-23T02:55:51.175Z,71.90
2018-08-23T02:56:23.683Z,71.80
2018-08-23T02:56:56.648Z,71.70
2018-08-23T02:57:29.663Z,71.70
2018-08-23T02:58:02.837Z,71.70
2018-08-23T02:58:35.873Z,71.80
2018-08-23T02:59:08.454Z,72.00
2018-08-23T02:59:40.955Z,72.00
2018-08-23T03:00:14.227Z,71.80
2018-08-23T03:00:46.809Z,72.70
2018-08-23T03:01:19.305Z,72.00
2018-08-23T03:01:51.815Z,71.80
2018-08-23T03:02:25.563Z,71.80
2018-08-23T03:02:58.167Z,71.80
2018-08-23T03:03:31.474Z,71.80
2018-08-23T03:04:04.014Z,71.70
2018-08-23T03:04:37.287Z,71.90
2018-08-23T03:05:09.787Z,71.90
2018-08-23T03:05:42.286Z,71.90
2018-08-23T03:06:15.552Z,72.10
2018-08-23T03:06:48.071Z,72.10
2018-08-23T03:07:21.339Z,72.10
2018-08-23T03:07:53.855Z,72.10
2018-08-23T03:08:26.812Z,72.00
2018-08-23T03:08:59.850Z,72.40
2018-08-23T03:09:32.895Z,72.10
2018-08-23T03:10:05.936Z,72.30
2018-08-23T03:10:39.280Z,72.10
2018-08-23T03:11:12.550Z,72.10
2018-08-23T03:11:45.076Z,72.10
2018-08-23T03:12:17.564Z,72.30
2018-08-23T03:12:50.078Z,72.30
2018-08-23T03:13:22.579Z,72.30
2018-08-23T03:13:55.111Z,72.50
2018-08-23T03:14:28.354Z,72.40
2018-08-23T03:15:01.630Z,72.40
2018-08-23T03:15:35.335Z,73.00
2018-08-23T03:16:08.029Z,72.40
2018-08-23T03:16:40.531Z,72.30
2018-08-23T03:17:13.027Z,72.50
2018-08-23T03:17:46.313Z,72.10
2018-08-23T03:18:18.832Z,72.10
2018-08-23T03:18:51.330Z,72.20
2018-08-23T03:19:24.594Z,72.40
2018-08-23T03:19:57.100Z,72.40
2018-08-23T03:20:29.748Z,72.30
2018-08-23T03:21:02.248Z,72.20
2018-08-23T03:21:35.203Z,72.20
2018-08-23T03:22:08.233Z,72.30
2018-08-23T03:22:40.817Z,72.10
2018-08-23T03:23:13.350Z,72.30
2018-08-23T03:23:45.859Z,72.20
2018-08-23T03:24:18.359Z,72.50
2018-08-23T03:24:50.863Z,72.40
2018-08-23T03:25:23.393Z,72.50
2018-08-23T03:25:55.908Z,72.60
2018-08-23T03:26:28.568Z,72.80
2018-08-23T03:27:01.059Z,72.50
2018-08-23T03:27:34.010Z,72.60
2018-08-23T03:28:07.056Z,72.80
2018-08-23T03:28:40.089Z,72.80
2018-08-23T03:29:13.438Z,72.90
2018-08-23T03:29:46.383Z,73.80
2018-08-23T03:30:18.994Z,73.00
2018-08-23T03:30:51.503Z,73.00
2018-08-23T03:31:24.444Z,72.80
2018-08-23T03:31:57.468Z,72.70
2018-08-23T03:32:32.022Z,72.70
2018-08-23T03:33:05.090Z,72.70
2018-08-23T03:33:38.129Z,73.10
2018-08-23T03:34:11.495Z,72.90
2018-08-23T03:34:44.547Z,72.90
2018-08-23T03:35:17.587Z,73.00
2018-08-23T03:35:50.623Z,72.90
2018-08-23T03:36:23.654Z,72.80
2018-08-23T03:36:56.682Z,72.90
2018-08-23T03:37:30.486Z,74.00
2018-08-23T03:38:04.276Z,73.00
2018-08-23T03:38:38.089Z,73.20
2018-08-23T03:39:11.132Z,73.20
2018-08-23T03:39:44.263Z,73.20
2018-08-23T03:40:17.291Z,73.10
2018-08-23T03:40:50.328Z,73.10
2018-08-23T03:41:23.355Z,73.30
2018-08-23T03:41:56.404Z,73.00
2018-08-23T03:42:29.433Z,73.30
2018-08-23T03:43:02.470Z,73.10
2018-08-23T03:43:36.276Z,73.00
2018-08-23T03:44:09.327Z,73.10
2018-08-23T03:44:42.367Z,73.20
2018-08-23T03:45:16.180Z,73.50
2018-08-23T03:45:49.217Z,73.50
2018-08-23T03:46:22.396Z,73.40
2018-08-23T03:46:55.440Z,72.80
2018-08-23T03:47:28.484Z,73.50
2018-08-23T03:48:01.528Z,73.60
2018-08-23T03:48:34.573Z,73.50
2018-08-23T03:49:07.615Z,73.50
2018-08-23T03:49:41.416Z,74.10
2018-08-23T03:50:15.215Z,73.70
2018-08-23T03:50:49.012Z,73.70
2018-08-23T03:51:22.808Z,73.80
2018-08-23T03:51:56.592Z,73.70
2018-08-23T03:52:31.057Z,73.70
2018-08-23T03:53:04.043Z,73.80
2018-08-23T03:53:36.663Z,73.80
2018-08-23T03:54:09.623Z,73.80
2018-08-23T03:54:42.664Z,73.70
2018-08-23T03:55:15.699Z,73.60
2018-08-23T03:55:48.732Z,73.80
2018-08-23T03:56:21.776Z,73.90
2018-08-23T03:56:55.577Z,73.60
2018-08-23T03:57:28.615Z,73.60
2018-08-23T03:58:01.665Z,73.80
2018-08-23T03:58:34.702Z,73.90
2018-08-23T03:59:07.765Z,73.80
2018-08-23T03:59:40.793Z,73.80
2018-08-23T04:00:13.856Z,74.00
2018-08-23T04:00:46.892Z,74.60
2018-08-23T04:01:19.928Z,73.80
2018-08-23T04:01:52.964Z,74.00
2018-08-23T04:02:26.755Z,74.10
2018-08-23T04:03:00.573Z,74.00
2018-08-23T04:03:33.624Z,74.00
2018-08-23T04:04:06.759Z,73.90
2018-08-23T04:04:40.030Z,73.80
2018-08-23T04:05:13.085Z,74.00
2018-08-23T04:05:46.418Z,74.20
2018-08-23T04:06:20.474Z,74.10
2018-08-23T04:06:52.971Z,74.10
2018-08-23T04:07:25.936Z,74.30
2018-08-23T04:07:58.985Z,74.30
2018-08-23T04:08:31.583Z,74.30
2018-08-23T04:09:04.103Z,74.20
2018-08-23T04:09:36.608Z,74.00
2018-08-23T04:10:09.122Z,74.30
2018-08-23T04:10:41.624Z,74.10
2018-08-23T04:11:14.142Z,74.50
2018-08-23T04:11:46.635Z,74.40
2018-08-23T04:12:19.143Z,74.60
2018-08-23T04:12:51.654Z,74.50
2018-08-23T04:13:24.166Z,74.40
2018-08-23T04:13:56.688Z,74.50
2018-08-23T04:14:29.221Z,74.50
2018-08-23T04:15:01.742Z,74.60
2018-08-23T04:15:35.002Z,74.90
2018-08-23T04:16:07.516Z,74.80
2018-08-23T04:16:40.323Z,74.80
2018-08-23T04:17:12.861Z,74.40
2018-08-23T04:17:45.668Z,74.60
2018-08-23T04:18:18.274Z,74.60
2018-08-23T04:18:50.775Z,74.60
2018-08-23T04:19:23.302Z,74.70
2018-08-23T04:19:55.813Z,74.70
2018-08-23T04:20:28.335Z,74.90
2018-08-23T04:21:00.843Z,74.80
2018-08-23T04:21:33.788Z,74.80
2018-08-23T04:22:06.399Z,74.80
2018-08-23T04:22:39.715Z,74.90
2018-08-23T04:23:12.160Z,74.90
2018-08-23T04:23:44.663Z,74.80
2018-08-23T04:24:17.167Z,75.00
2018-08-23T04:24:50.451Z,74.80
2018-08-23T04:25:23.715Z,74.80
2018-08-23T04:25:56.217Z,74.80
2018-08-23T04:26:28.716Z,74.80
2018-08-23T04:27:01.227Z,75.90
2018-08-23T04:27:34.507Z,74.90
2018-08-23T04:28:07.769Z,75.00
2018-08-23T04:28:41.036Z,75.00
2018-08-23T04:29:13.539Z,75.00
2018-08-23T04:29:46.526Z,75.10
2018-08-23T04:30:20.317Z,75.60
2018-08-23T04:30:53.415Z,75.60
2018-08-23T04:31:27.914Z,76.60
2018-08-23T04:33:18.087Z,75.60
2018-08-23T04:33:50.600Z,75.50
2018-08-23T04:34:23.858Z,75.60
2018-08-23T04:34:56.379Z,75.70
2018-08-23T04:35:28.863Z,75.60
2018-08-23T04:36:01.360Z,75.60
2018-08-23T04:36:34.106Z,75.90
2018-08-23T04:37:06.594Z,75.80
2018-08-23T04:37:39.120Z,75.90
2018-08-23T04:38:11.626Z,75.70
2018-08-23T04:38:44.127Z,75.60
2018-08-23T04:39:16.627Z,75.60
2018-08-23T04:39:49.292Z,75.70
2018-08-23T04:40:21.782Z,75.40
2018-08-23T04:40:55.055Z,75.90
2018-08-23T04:41:27.564Z,75.90
2018-08-23T04:42:00.063Z,76.00
2018-08-23T04:42:32.610Z,75.90
2018-08-23T04:43:05.130Z,76.10
2018-08-23T04:43:37.609Z,75.90
2018-08-23T04:44:10.093Z,75.80
2018-08-23T04:44:42.606Z,75.80
2018-08-23T04:45:15.132Z,75.90
2018-08-23T04:45:47.643Z,76.20
2018-08-23T04:46:20.162Z,76.20
2018-08-23T04:46:53.432Z,77.00
2018-08-23T04:47:26.725Z,76.20
2018-08-23T04:47:59.239Z,76.70
2018-08-23T04:48:31.783Z,76.30
2018-08-23T04:49:04.296Z,76.30
2018-08-23T04:49:36.796Z,76.30
2018-08-23T04:50:10.055Z,76.20
2018-08-23T04:50:42.916Z,76.60
2018-08-23T04:51:15.412Z,76.10
2018-08-23T04:51:48.068Z,76.20
2018-08-23T04:52:20.564Z,76.10
2018-08-23T04:52:53.092Z,76.10
2018-08-23T04:53:25.583Z,77.20
2018-08-23T04:53:58.094Z,76.40
2018-08-23T04:54:31.346Z,76.60
2018-08-23T04:55:03.991Z,76.40
2018-08-23T04:55:36.516Z,76.30
2018-08-23T04:56:09.017Z,76.40
2018-08-23T04:56:41.517Z,76.30
2018-08-23T04:57:14.008Z,76.00
2018-08-23T04:57:46.605Z,76.40
2018-08-23T04:58:19.105Z,76.40
2018-08-23T04:58:51.599Z,76.00
2018-08-23T04:59:24.888Z,76.40
2018-08-23T04:59:57.382Z,76.40
2018-08-23T05:00:30.075Z,76.80
2018-08-23T05:01:02.575Z,76.50
2018-08-23T05:01:35.071Z,76.50
2018-08-23T05:02:07.803Z,76.50
2018-08-23T05:02:40.303Z,76.60
2018-08-23T05:03:12.793Z,76.60
2018-08-23T05:03:45.314Z,76.60
2018-08-23T05:04:17.822Z,76.50
2018-08-23T05:04:50.307Z,76.40
2018-08-23T05:05:23.580Z,76.50
2018-08-23T05:05:56.105Z,76.50
2018-08-23T05:06:28.592Z,76.70
2018-08-23T05:07:01.093Z,76.60
2018-08-23T05:07:34.354Z,76.50
2018-08-23T05:08:07.634Z,76.60
2018-08-23T05:08:40.916Z,76.70
2018-08-23T05:09:13.420Z,76.70
2018-08-23T05:09:45.931Z,76.80
2018-08-23T05:10:18.445Z,76.80
2018-08-23T05:10:50.951Z,76.90
2018-08-23T05:11:23.455Z,77.00
2018-08-23T05:11:56.121Z,77.10
2018-08-23T05:12:28.934Z,77.20
2018-08-23T05:13:01.455Z,77.10
2018-08-23T05:13:33.964Z,77.10
2018-08-23T05:14:06.520Z,77.30
2018-08-23T05:14:38.995Z,77.40
2018-08-23T05:15:11.526Z,77.00
2018-08-23T05:15:44.031Z,77.40
2018-08-23T05:16:16.637Z,77.30
2018-08-23T05:16:49.139Z,77.30
2018-08-23T05:17:21.631Z,77.30
2018-08-23T05:17:54.912Z,77.30
2018-08-23T05:18:27.409Z,77.30
2018-08-23T05:18:59.912Z,77.40
2018-08-23T05:19:32.418Z,77.60
2018-08-23T05:20:04.942Z,77.50
2018-08-23T05:20:37.434Z,77.40
2018-08-23T05:21:10.104Z,77.30
2018-08-23T05:21:42.604Z,77.60
2018-08-23T05:22:15.111Z,77.50
2018-08-23T05:22:48.383Z,77.90
2018-08-23T05:23:21.800Z,77.70
2018-08-23T05:23:54.199Z,77.70
2018-08-23T05:24:26.699Z,77.90
2018-08-23T05:24:59.217Z,77.80
2018-08-23T05:25:31.723Z,77.70
2018-08-23T05:26:05.015Z,78.00
2018-08-23T05:26:37.526Z,77.90
2018-08-23T05:27:10.028Z,78.00
2018-08-23T05:27:43.301Z,78.10
2018-08-23T05:28:15.836Z,78.20
2018-08-23T05:28:48.332Z,78.00
2018-08-23T05:29:21.607Z,78.00
2018-08-23T05:29:54.134Z,78.80
2018-08-23T05:30:26.624Z,78.40
2018-08-23T05:30:59.895Z,78.30
2018-08-23T05:31:32.409Z,78.30
2018-08-23T05:32:05.314Z,78.30
2018-08-23T05:32:37.824Z,78.20
2018-08-23T05:33:10.333Z,78.30
2018-08-23T05:33:42.836Z,78.30
2018-08-23T05:34:16.096Z,78.30
2018-08-23T05:34:48.615Z,78.50
2018-08-23T05:35:21.130Z,78.20
2018-08-23T05:35:53.621Z,78.60
2018-08-23T05:36:26.136Z,78.40
2018-08-23T05:36:58.636Z,78.40
2018-08-23T05:37:31.141Z,78.60
2018-08-23T05:38:03.643Z,78.40
2018-08-23T05:38:36.231Z,78.90
2018-08-23T05:39:08.735Z,79.40
2018-08-23T05:39:41.462Z,79.20
2018-08-23T05:40:13.946Z,79.30
2018-08-23T05:40:46.460Z,79.40
2018-08-23T05:41:19.724Z,79.30
2018-08-23T05:41:52.244Z,79.30
2018-08-23T05:42:25.926Z,79.40
2018-08-23T05:42:58.383Z,79.90
2018-08-23T05:43:30.931Z,79.40
2018-08-23T05:44:03.431Z,79.70
2018-08-23T05:44:35.931Z,80.00
2018-08-23T05:45:08.443Z,79.80
2018-08-23T05:45:40.940Z,80.10
2018-08-23T05:46:13.447Z,80.20
2018-08-23T05:46:46.163Z,80.30
2018-08-23T05:47:18.680Z,80.30
2018-08-23T05:47:51.185Z,80.00
2018-08-23T05:48:23.703Z,80.20
2018-08-23T05:48:56.383Z,80.40
2018-08-23T05:49:28.882Z,80.30
2018-08-23T05:50:01.399Z,80.40
2018-08-23T05:50:33.904Z,80.20
2018-08-23T05:51:06.402Z,80.10
2018-08-23T05:51:39.247Z,80.10
2018-08-23T05:52:12.008Z,80.20
2018-08-23T05:52:44.779Z,80.30
2018-08-23T05:53:18.038Z,80.50
2018-08-23T05:53:50.572Z,80.50
2018-08-23T05:54:23.087Z,80.60
2018-08-23T05:54:55.583Z,80.60
2018-08-23T05:55:28.140Z,80.30
2018-08-23T05:56:00.715Z,80.10
2018-08-23T05:56:33.211Z,80.40
2018-08-23T05:57:05.717Z,80.50
2018-08-23T05:57:38.983Z,81.60
2018-08-23T05:58:11.491Z,80.70
2018-08-23T05:58:44.030Z,80.30
2018-08-23T05:59:17.303Z,80.40
2018-08-23T05:59:50.575Z,80.20
2018-08-23T06:00:23.088Z,80.20
2018-08-23T06:00:55.591Z,80.10
2018-08-23T06:01:28.096Z,80.20
2018-08-23T06:02:00.631Z,80.20
2018-08-23T06:02:33.111Z,80.10
2018-08-23T06:03:05.606Z,80.20
2018-08-23T06:03:38.139Z,80.10
2018-08-23T06:04:10.650Z,80.30
2018-08-23T06:04:43.174Z,80.30
2018-08-23T06:05:15.675Z,80.00
2018-08-23T06:05:48.180Z,79.90
2018-08-23T06:06:21.451Z,80.20
2018-08-23T06:06:54.715Z,80.20
2018-08-23T06:07:27.219Z,80.10
2018-08-23T06:07:59.729Z,80.00
2018-08-23T06:08:33.041Z,80.00
2018-08-23T06:09:05.499Z,80.00
2018-08-23T06:09:38.767Z,80.20
2018-08-23T06:10:12.039Z,79.90
2018-08-23T06:10:44.545Z,79.50
2018-08-23T06:11:17.207Z,79.70
2018-08-23T06:11:49.732Z,79.50
2018-08-23T06:12:22.240Z,79.90
2018-08-23T06:12:54.918Z,79.60
2018-08-23T06:13:27.425Z,79.40
2018-08-23T06:13:59.944Z,79.50
2018-08-23T06:14:32.435Z,79.30
2018-08-23T06:15:04.944Z,79.30
2018-08-23T06:15:37.475Z,79.40
2018-08-23T06:16:09.979Z,79.30
2018-08-23T06:16:42.482Z,79.30
2018-08-23T06:17:14.984Z,79.20
2018-08-23T06:17:48.251Z,79.40
2018-08-23T06:18:21.535Z,79.30
2018-08-23T06:18:55.287Z,79.10
2018-08-23T06:19:27.889Z,79.10
2018-08-23T06:20:00.469Z,79.20
2018-08-23T06:20:32.967Z,79.10
2018-08-23T06:21:05.492Z,79.10
2018-08-23T06:21:38.456Z,79.10
2018-08-23T06:22:11.595Z,79.20
2018-08-23T06:22:44.628Z,79.20
2018-08-23T06:23:18.447Z,79.20
2018-08-23T06:23:51.501Z,79.20
2018-08-23T06:24:24.848Z,79.20
2018-08-23T06:24:58.141Z,78.80
2018-08-23T06:25:31.408Z,78.80
2018-08-23T06:26:03.926Z,78.70
2018-08-23T06:26:36.432Z,79.00
2018-08-23T06:27:09.715Z,79.20
2018-08-23T06:27:42.242Z,79.10
2018-08-23T06:28:14.750Z,79.20
2018-08-23T06:28:48.037Z,78.70
2018-08-23T06:29:20.547Z,78.70
2018-08-23T06:29:53.054Z,78.60
2018-08-23T06:30:26.010Z,78.40
2018-08-23T06:30:59.044Z,78.50
2018-08-23T06:31:32.133Z,78.40
2018-08-23T06:32:05.172Z,78.20
2018-08-23T06:32:38.532Z,78.10
2018-08-23T06:33:12.018Z,78.00
2018-08-23T06:33:44.429Z,77.90
2018-08-23T06:34:16.912Z,77.90
2018-08-23T06:34:49.427Z,77.60
2018-08-23T06:35:21.944Z,77.60
2018-08-23T06:35:54.455Z,77.50
2018-08-23T06:36:26.960Z,77.50
2018-08-23T06:36:59.472Z,77.60
2018-08-23T06:37:32.011Z,77.70
2018-08-23T06:38:05.288Z,78.00
2018-08-23T06:38:37.829Z,77.90
2018-08-23T06:39:10.355Z,77.90
2018-08-23T06:39:42.882Z,77.80
2018-08-23T06:40:15.416Z,77.80
2018-08-23T06:40:48.693Z,77.50
2018-08-23T06:41:21.231Z,77.50
2018-08-23T06:41:53.783Z,77.40
2018-08-23T06:42:26.312Z,77.40
2018-08-23T06:42:58.839Z,77.40
2018-08-23T06:43:31.387Z,77.40
2018-08-23T06:44:03.903Z,77.30
2018-08-23T06:44:36.519Z,77.30
2018-08-23T06:45:08.984Z,77.00
2018-08-23T06:45:41.505Z,76.90
2018-08-23T06:46:14.067Z,77.30
2018-08-23T06:46:46.514Z,76.80
2018-08-23T06:47:19.788Z,77.80
2018-08-23T06:47:53.059Z,77.50
2018-08-23T06:48:25.793Z,77.40
2018-08-23T06:48:58.564Z,77.70
2018-08-23T06:49:30.960Z,77.80
2018-08-23T06:50:03.557Z,77.70
2018-08-23T06:50:36.077Z,76.80
2018-08-23T06:51:09.566Z,76.10
2018-08-23T06:51:42.799Z,76.30
2018-08-23T06:52:15.347Z,76.40
2018-08-23T06:52:47.871Z,75.50
2018-08-23T06:53:21.167Z,75.80
2018-08-23T06:53:53.675Z,75.80
2018-08-23T06:54:26.195Z,75.40
2018-08-23T06:54:59.467Z,75.20
2018-08-23T06:55:31.971Z,75.20
2018-08-23T06:56:04.469Z,76.40
2018-08-23T06:56:36.973Z,75.10
2018-08-23T06:57:09.475Z,75.20
2018-08-23T06:57:42.267Z,75.00
2018-08-23T06:58:14.791Z,74.90
2018-08-23T06:58:47.318Z,74.80
2018-08-23T06:59:19.811Z,75.50
2018-08-23T06:59:53.070Z,74.90
2018-08-23T07:00:25.731Z,74.90
2018-08-23T07:00:58.311Z,74.80
2018-08-23T07:01:30.820Z,75.00
2018-08-23T07:02:03.406Z,75.80
2018-08-23T07:02:35.904Z,75.10
2018-08-23T07:03:08.415Z,74.50
2018-08-23T07:03:40.949Z,75.00
2018-08-23T07:04:13.447Z,74.60
2018-08-23T07:04:45.951Z,75.20
2018-08-23T07:05:18.486Z,75.30